Oshkosh, Nebraska
Current Conditions -  °F | °C
As of 11:15 PM on Sunday 25 Jan 2015 (Local Time) from KOGA Reporting Station
Clear Clear  
Wind Chill: 37°   Ceiling: Unl
Heat Index: 45°   Visibility: 10mi
Dew Point: 33°   Wind: 17mph
Humidity: 63%   Direction: 300°WNW
Pressure: 30.06"   Gusts: 25mph
Location:  41.41°N, 102.34°W
Report Text: KOGA 260615Z AUTO 30015G22KT 10SM CLR 07/01 A3006 RMK AO2 T00710005
Loading
Personal Weather Stations






























Interactive Weather Map New forecast layout! Learn more

10-Day Weather Forecast

Advertisements
Track Severe Weather on mobile